Time;durP1;ratioP1;P1;durP2;ratioP2;P2;SDS_P1;SDS_P2;PMS_P1;PMS_P2;Temp;Humidity;BMP_temperature;BMP_pressure;BME280_temperature;BME280_humidity;BME280_pressure;Samples;Min_cycle;Max_cycle;Signal;HPM_P1;HPM_P2
2023/06/09 00:00:36;;;;;;;9.38;2.58;;;;;;;;;;5007908;28;20076;-72
2023/06/09 00:03:02;;;;;;;7.70;2.10;;;;;;;;;;5011510;28;20413;-72
2023/06/09 00:05:32;;;;;;;8.02;2.85;;;;;;;;;;5012897;28;20046;-72
2023/06/09 00:08:00;;;;;;;4.03;2.22;;;;;;;;;;5009837;28;20038;-72
2023/06/09 00:10:26;;;;;;;4.38;2.50;;;;;;;;;;5010158;28;20033;-71
2023/06/09 00:12:52;;;;;;;6.43;2.60;;;;;;;;;;5008602;28;20402;-72
2023/06/09 00:15:18;;;;;;;6.00;2.08;;;;;;;;;;5010866;28;20045;-72
2023/06/09 00:17:43;;;;;;;6.28;2.25;;;;;;;;;;5011545;28;20462;-72
2023/06/09 00:20:09;;;;;;;7.25;2.33;;;;;;;;;;5012598;28;20041;-72
2023/06/09 00:22:42;;;;;;;7.57;2.50;;;;;;;;;;5007642;28;20500;-72
2023/06/09 00:25:12;;;;;;;5.20;2.05;;;;;;;;;;5013317;28;20061;-72
2023/06/09 00:27:38;;;;;;;11.43;2.70;;;;;;;;;;5011737;28;20037;-71
2023/06/09 00:30:04;;;;;;;4.03;2.28;;;;;;;;;;5009223;28;20037;-72
2023/06/09 00:32:29;;;;;;;6.43;2.50;;;;;;;;;;5012699;28;20050;-72
2023/06/09 00:34:55;;;;;;;7.25;3.00;;;;;;;;;;5009455;28;20034;-72
2023/06/09 00:37:20;;;;;;;5.50;2.30;;;;;;;;;;5013055;28;20125;-72
2023/06/09 00:39:45;;;;;;;5.97;2.55;;;;;;;;;;5008070;28;20034;-72
2023/06/09 00:42:11;;;;;;;6.38;2.40;;;;;;;;;;5007745;28;20034;-72
2023/06/09 00:44:36;;;;;;;5.03;2.40;;;;;;;;;;4999146;28;20527;-72
2023/06/09 00:47:01;;;;;;;8.80;2.78;;;;;;;;;;5013063;28;20505;-72
2023/06/09 00:49:27;;;;;;;5.07;2.25;;;;;;;;;;5002947;28;20072;-72
2023/06/09 00:51:52;;;;;;;8.32;2.90;;;;;;;;;;5004142;28;20130;-72
2023/06/09 00:54:18;;;;;;;7.82;3.03;;;;;;;;;;4997896;28;20116;-72
2023/06/09 00:56:44;;;;;;;13.40;2.28;;;;;;;;;;5011668;28;20033;-72
2023/06/09 00:59:13;;;;;;;9.18;2.83;;;;;;;;;;5010952;28;20165;-72
2023/06/09 01:01:40;;;;;;;6.57;2.63;;;;;;;;;;5008220;28;20060;-72
2023/06/09 01:04:06;;;;;;;7.78;3.33;;;;;;;;;;5012290;28;20040;-72
2023/06/09 01:06:45;;;;;;;12.20;3.45;;;;;;;;;;5015450;28;20038;-72
2023/06/09 01:09:33;;;;;;;7.63;2.38;;;;;;;;;;5015730;28;20042;-72
2023/06/09 01:12:11;;;;;;;5.53;2.83;;;;;;;;;;5015626;28;20100;-72
2023/06/09 01:15:02;;;;;;;7.38;2.90;;;;;;;;;;5008444;28;20070;-71
2023/06/09 01:17:28;;;;;;;5.97;2.35;;;;;;;;;;5012229;28;20374;-72
2023/06/09 01:20:04;;;;;;;9.30;3.40;;;;;;;;;;5008686;28;20460;-72
2023/06/09 01:22:36;;;;;;;11.57;3.17;;;;;;;;;;5015287;28;20038;-72
2023/06/09 01:25:06;;;;;;;6.65;3.00;;;;;;;;;;5015290;28;20069;-72
2023/06/09 01:27:36;;;;;;;5.78;2.45;;;;;;;;;;5013860;28;20050;-72
2023/06/09 01:30:02;;;;;;;9.98;3.20;;;;;;;;;;5013695;28;20034;-72
2023/06/09 01:32:27;;;;;;;7.53;2.97;;;;;;;;;;5012161;28;20049;-72
2023/06/09 01:34:53;;;;;;;8.60;2.90;;;;;;;;;;5013321;28;20030;-72
2023/06/09 01:37:19;;;;;;;8.48;3.25;;;;;;;;;;5010027;28;20037;-72
2023/06/09 01:39:46;;;;;;;9.25;3.20;;;;;;;;;;5006554;28;20050;-72
2023/06/09 01:42:11;;;;;;;4.32;2.58;;;;;;;;;;5006228;28;20537;-72
2023/06/09 01:44:37;;;;;;;7.55;3.17;;;;;;;;;;5024464;28;20034;-72
2023/06/09 01:47:03;;;;;;;9.10;3.17;;;;;;;;;;5005316;28;20113;-72
2023/06/09 01:49:41;;;;;;;12.88;2.97;;;;;;;;;;5008701;28;20069;-71
2023/06/09 01:52:16;;;;;;;5.68;3.10;;;;;;;;;;5012247;28;20112;-72
2023/06/09 01:54:47;;;;;;;5.88;3.05;;;;;;;;;;5012302;28;20068;-72
2023/06/09 01:57:20;;;;;;;9.90;3.22;;;;;;;;;;5008924;28;20504;-72
2023/06/09 01:59:59;;;;;;;8.65;3.60;;;;;;;;;;5010458;28;20422;-72
2023/06/09 02:02:28;;;;;;;13.48;3.65;;;;;;;;;;5010223;28;20524;-72
2023/06/09 02:04:55;;;;;;;8.93;4.00;;;;;;;;;;5003067;28;20038;-72
2023/06/09 02:07:21;;;;;;;7.13;3.45;;;;;;;;;;5011906;28;20033;-72
2023/06/09 02:09:47;;;;;;;7.88;3.30;;;;;;;;;;5013165;28;20034;-72
2023/06/09 02:12:12;;;;;;;8.40;3.90;;;;;;;;;;5013068;28;20045;-72
2023/06/09 02:14:39;;;;;;;12.48;4.25;;;;;;;;;;5013408;28;20034;-72
2023/06/09 02:17:05;;;;;;;4.82;2.95;;;;;;;;;;5015351;28;20038;-72
2023/06/09 02:19:37;;;;;;;6.22;3.08;;;;;;;;;;5014174;28;20393;-71
2023/06/09 02:22:03;;;;;;;9.48;3.50;;;;;;;;;;5013687;28;20046;-71
2023/06/09 02:24:28;;;;;;;8.57;3.63;;;;;;;;;;5015665;28;20046;-72
2023/06/09 02:26:54;;;;;;;18.27;4.07;;;;;;;;;;5015004;28;20042;-72
2023/06/09 02:29:20;;;;;;;6.22;3.17;;;;;;;;;;5014427;28;20034;-72
2023/06/09 02:31:45;;;;;;;9.13;4.20;;;;;;;;;;5014787;28;20042;-71
2023/06/09 02:34:11;;;;;;;8.95;4.45;;;;;;;;;;5011905;28;20042;-72
2023/06/09 02:36:37;;;;;;;7.45;3.55;;;;;;;;;;5011693;28;20049;-72
2023/06/09 02:39:03;;;;;;;7.65;4.35;;;;;;;;;;5010035;28;20072;-72
2023/06/09 02:41:29;;;;;;;21.45;4.70;;;;;;;;;;5008131;28;20502;-72
2023/06/09 02:43:54;;;;;;;12.43;4.18;;;;;;;;;;5014785;28;20030;-72
2023/06/09 02:46:22;;;;;;;13.95;3.70;;;;;;;;;;5014988;28;20045;-72
2023/06/09 02:48:48;;;;;;;12.43;3.75;;;;;;;;;;4992568;28;20367;-72
2023/06/09 02:51:13;;;;;;;14.68;4.47;;;;;;;;;;5008955;28;20033;-72
2023/06/09 02:53:38;;;;;;;14.60;4.32;;;;;;;;;;5014962;28;20044;-72
2023/06/09 02:56:04;;;;;;;9.10;3.38;;;;;;;;;;5014442;28;20431;-72
2023/06/09 02:58:30;;;;;;;13.20;4.85;;;;;;;;;;5009300;28;20516;-72
2023/06/09 03:00:55;;;;;;;6.40;4.10;;;;;;;;;;5008941;28;20038;-72
2023/06/09 03:03:20;;;;;;;7.53;4.13;;;;;;;;;;5013264;28;20109;-72
2023/06/09 03:05:47;;;;;;;14.68;4.63;;;;;;;;;;5014854;28;20394;-72
2023/06/09 03:08:12;;;;;;;12.23;4.15;;;;;;;;;;5014431;28;20040;-72
2023/06/09 03:10:37;;;;;;;8.60;4.10;;;;;;;;;;5009506;28;20120;-71
2023/06/09 03:13:03;;;;;;;10.18;4.50;;;;;;;;;;5014285;28;20057;-71
2023/06/09 03:15:28;;;;;;;13.45;4.53;;;;;;;;;;5012073;28;20447;-72
2023/06/09 03:17:54;;;;;;;14.85;4.03;;;;;;;;;;5014304;28;20478;-72
2023/06/09 03:20:19;;;;;;;12.82;4.15;;;;;;;;;;5008348;28;20038;-72
2023/06/09 03:22:45;;;;;;;9.63;3.95;;;;;;;;;;5013137;28;20120;-72
2023/06/09 03:25:12;;;;;;;9.93;4.38;;;;;;;;;;5000273;28;20041;-72
2023/06/09 03:27:37;;;;;;;8.45;4.13;;;;;;;;;;5042886;28;20029;-72
2023/06/09 03:30:05;;;;;;;10.85;4.40;;;;;;;;;;5010186;28;20092;-72
2023/06/09 03:32:30;;;;;;;11.57;4.25;;;;;;;;;;5012367;28;20054;-72
2023/06/09 03:34:56;;;;;;;14.80;5.20;;;;;;;;;;5006767;28;20077;-72
2023/06/09 03:37:21;;;;;;;15.32;4.38;;;;;;;;;;5011161;28;20038;-71
2023/06/09 03:39:46;;;;;;;8.18;4.00;;;;;;;;;;5012689;28;20033;-72
2023/06/09 03:42:12;;;;;;;11.48;4.15;;;;;;;;;;5005551;28;20034;-72
2023/06/09 03:44:37;;;;;;;14.07;5.38;;;;;;;;;;5002379;28;20120;-71
2023/06/09 03:47:03;;;;;;;13.13;4.35;;;;;;;;;;5004478;28;20038;-72
2023/06/09 03:49:28;;;;;;;7.43;4.30;;;;;;;;;;5003448;28;20493;-72
2023/06/09 03:51:53;;;;;;;12.18;4.75;;;;;;;;;;5004581;28;20039;-72
2023/06/09 03:54:19;;;;;;;15.10;4.68;;;;;;;;;;5002067;28;20478;-72
2023/06/09 03:56:44;;;;;;;18.55;4.00;;;;;;;;;;5009470;28;20040;-72
2023/06/09 03:59:09;;;;;;;11.73;4.80;;;;;;;;;;5013505;28;20064;-72
2023/06/09 04:01:35;;;;;;;16.13;5.18;;;;;;;;;;5003008;28;20074;-72
2023/06/09 04:04:00;;;;;;;15.40;4.70;;;;;;;;;;5002708;28;20034;-72
2023/06/09 04:06:26;;;;;;;18.25;4.78;;;;;;;;;;5010354;28;20088;-72
2023/06/09 04:08:51;;;;;;;12.32;4.10;;;;;;;;;;5012027;28;20045;-72
2023/06/09 04:11:17;;;;;;;10.68;3.67;;;;;;;;;;5013237;28;20033;-72
2023/06/09 04:13:42;;;;;;;10.82;4.32;;;;;;;;;;5013308;28;20042;-72
2023/06/09 04:16:07;;;;;;;10.55;3.50;;;;;;;;;;5012821;28;20044;-72
2023/06/09 04:18:33;;;;;;;11.73;3.53;;;;;;;;;;5013229;28;20068;-72
2023/06/09 04:20:58;;;;;;;7.43;3.42;;;;;;;;;;5012965;28;20046;-72
2023/06/09 04:23:27;;;;;;;10.98;4.00;;;;;;;;;;5013580;28;20073;-72
2023/06/09 04:25:53;;;;;;;7.35;2.88;;;;;;;;;;5012844;28;20461;-72
2023/06/09 04:28:18;;;;;;;6.90;3.40;;;;;;;;;;5006710;28;20038;-72
2023/06/09 04:30:44;;;;;;;9.85;3.25;;;;;;;;;;5010012;28;20037;-72
2023/06/09 04:33:09;;;;;;;7.95;3.15;;;;;;;;;;5009580;28;20046;-72
2023/06/09 04:35:35;;;;;;;11.07;3.75;;;;;;;;;;5011892;28;20108;-73
2023/06/09 04:38:01;;;;;;;6.25;3.15;;;;;;;;;;5013061;28;20061;-72
2023/06/09 04:40:27;;;;;;;12.48;2.97;;;;;;;;;;5005819;28;20033;-72
2023/06/09 04:42:59;;;;;;;6.97;3.72;;;;;;;;;;5009550;28;20489;-72
2023/06/09 04:45:28;;;;;;;8.88;3.38;;;;;;;;;;5004514;28;20077;-72
2023/06/09 04:47:59;;;;;;;12.25;3.08;;;;;;;;;;5010330;28;20045;-72
2023/06/09 04:50:32;;;;;;;9.85;2.95;;;;;;;;;;5012731;28;20042;-72
2023/06/09 04:52:58;;;;;;;7.05;3.13;;;;;;;;;;5008618;28;20042;-72
2023/06/09 04:55:26;;;;;;;4.88;2.55;;;;;;;;;;5011546;28;20038;-72
2023/06/09 04:57:56;;;;;;;9.65;2.75;;;;;;;;;;5011774;28;20367;-72
2023/06/09 05:00:26;;;;;;;10.55;3.33;;;;;;;;;;5011735;28;20034;-72
2023/06/09 05:02:53;;;;;;;9.75;3.13;;;;;;;;;;5012244;28;20033;-72
2023/06/09 05:05:19;;;;;;;7.00;2.53;;;;;;;;;;5009670;28;20034;-72
2023/06/09 05:07:44;;;;;;;8.38;2.50;;;;;;;;;;5011751;28;20041;-72
2023/06/09 05:10:10;;;;;;;7.85;2.47;;;;;;;;;;4998709;28;20038;-72
2023/06/09 05:12:36;;;;;;;10.45;2.80;;;;;;;;;;5012755;28;20030;-72
2023/06/09 05:15:06;;;;;;;10.07;2.50;;;;;;;;;;5006837;28;20080;-72
2023/06/09 05:17:33;;;;;;;11.95;3.00;;;;;;;;;;5012729;28;20038;-72
2023/06/09 05:19:59;;;;;;;8.70;2.38;;;;;;;;;;5008973;28;20545;-72
2023/06/09 05:22:24;;;;;;;9.27;3.00;;;;;;;;;;5011906;28;20038;-72
2023/06/09 05:24:50;;;;;;;8.43;2.33;;;;;;;;;;5002344;28;20089;-72
2023/06/09 05:27:15;;;;;;;8.73;2.92;;;;;;;;;;5007476;28;20034;-72
2023/06/09 05:29:41;;;;;;;12.05;2.95;;;;;;;;;;5012515;28;20050;-72
2023/06/09 05:32:06;;;;;;;7.30;2.10;;;;;;;;;;5012074;28;20038;-72
2023/06/09 05:34:32;;;;;;;9.02;2.28;;;;;;;;;;5010977;28;20037;-72
2023/06/09 05:36:57;;;;;;;6.07;2.15;;;;;;;;;;5011769;28;20033;-72
2023/06/09 05:39:23;;;;;;;9.80;2.35;;;;;;;;;;5002274;28;20043;-72
2023/06/09 05:41:48;;;;;;;7.93;2.95;;;;;;;;;;5007189;28;20034;-72
2023/06/09 05:44:13;;;;;;;7.38;2.33;;;;;;;;;;5015023;28;20041;-72
2023/06/09 05:46:39;;;;;;;6.03;2.40;;;;;;;;;;5010451;28;20080;-72
2023/06/09 05:49:04;;;;;;;10.30;2.47;;;;;;;;;;5015552;28;20041;-72
2023/06/09 05:51:29;;;;;;;5.35;2.00;;;;;;;;;;5014525;28;20541;-72
2023/06/09 05:53:55;;;;;;;5.90;2.33;;;;;;;;;;5005781;28;20037;-72
2023/06/09 05:56:23;;;;;;;5.70;1.83;;;;;;;;;;5012897;28;20037;-72
2023/06/09 05:58:50;;;;;;;6.78;2.00;;;;;;;;;;5013718;28;20045;-72
2023/06/09 06:01:16;;;;;;;7.72;1.98;;;;;;;;;;5009961;28;20064;-72
2023/06/09 06:03:41;;;;;;;6.25;2.15;;;;;;;;;;5012748;28;20065;-72
2023/06/09 06:06:08;;;;;;;8.07;2.33;;;;;;;;;;5014336;28;20425;-72
2023/06/09 06:08:34;;;;;;;7.40;2.17;;;;;;;;;;5016025;28;20033;-73
2023/06/09 06:10:59;;;;;;;9.35;2.40;;;;;;;;;;5013992;28;20100;-73
2023/06/09 06:13:24;;;;;;;13.30;2.60;;;;;;;;;;5014811;28;20497;-73
2023/06/09 06:15:49;;;;;;;7.20;2.70;;;;;;;;;;5013769;28;20037;-72
2023/06/09 06:18:15;;;;;;;7.38;2.10;;;;;;;;;;5012693;28;20488;-73
2023/06/09 06:20:41;;;;;;;12.52;2.33;;;;;;;;;;5015943;28;20041;-72
2023/06/09 06:23:08;;;;;;;5.88;2.15;;;;;;;;;;5014395;28;20049;-72
2023/06/09 06:25:36;;;;;;;10.80;2.95;;;;;;;;;;5014550;28;20088;-72
2023/06/09 06:28:02;;;;;;;4.70;2.30;;;;;;;;;;5013461;28;20426;-73
2023/06/09 06:30:29;;;;;;;6.03;2.30;;;;;;;;;;5013738;28;20393;-73
2023/06/09 06:32:54;;;;;;;9.40;2.10;;;;;;;;;;5014753;28;20030;-73
2023/06/09 06:35:30;;;;;;;6.32;1.77;;;;;;;;;;5008713;28;20033;-72
2023/06/09 06:37:56;;;;;;;9.68;2.30;;;;;;;;;;5015128;28;20076;-72
2023/06/09 06:40:22;;;;;;;8.98;2.13;;;;;;;;;;5013447;28;20045;-73
2023/06/09 06:42:47;;;;;;;5.80;2.00;;;;;;;;;;5014076;28;20042;-73
2023/06/09 06:45:13;;;;;;;7.45;2.28;;;;;;;;;;5002528;28;20441;-73
2023/06/09 06:47:40;;;;;;;6.13;1.92;;;;;;;;;;5015100;28;20034;-73
2023/06/09 06:50:08;;;;;;;8.93;2.17;;;;;;;;;;5015223;28;20053;-72
2023/06/09 06:52:33;;;;;;;6.13;2.17;;;;;;;;;;5015196;28;20121;-73
2023/06/09 06:54:59;;;;;;;5.97;2.25;;;;;;;;;;5013882;28;20058;-73
2023/06/09 06:57:24;;;;;;;10.35;2.28;;;;;;;;;;5015144;28;20513;-72
2023/06/09 06:59:50;;;;;;;9.10;2.45;;;;;;;;;;5014062;28;20410;-73
2023/06/09 07:02:16;;;;;;;8.23;2.28;;;;;;;;;;5013511;28;20037;-72
2023/06/09 07:04:41;;;;;;;7.28;2.35;;;;;;;;;;5014930;28;20055;-73
2023/06/09 07:07:07;;;;;;;6.28;2.33;;;;;;;;;;5014839;28;20394;-73
2023/06/09 07:09:32;;;;;;;9.90;3.08;;;;;;;;;;5014401;28;20128;-73
2023/06/09 07:11:57;;;;;;;8.07;2.55;;;;;;;;;;5013262;28;20033;-73
2023/06/09 07:14:23;;;;;;;6.80;2.47;;;;;;;;;;5013293;28;20049;-72
2023/06/09 07:16:48;;;;;;;8.00;2.33;;;;;;;;;;5011151;28;20441;-72
2023/06/09 07:19:13;;;;;;;9.40;2.53;;;;;;;;;;5013558;28;20052;-73
2023/06/09 07:21:39;;;;;;;5.88;2.10;;;;;;;;;;5014383;28;20123;-73
2023/06/09 07:24:04;;;;;;;8.32;3.08;;;;;;;;;;5005283;28;20045;-72
2023/06/09 07:26:30;;;;;;;5.45;2.15;;;;;;;;;;5013285;28;20045;-72
2023/06/09 07:28:55;;;;;;;9.32;2.28;;;;;;;;;;5014319;28;20034;-73
2023/06/09 07:31:21;;;;;;;5.00;2.40;;;;;;;;;;5014528;28;20030;-73
2023/06/09 07:33:47;;;;;;;11.13;2.65;;;;;;;;;;5014868;28;20042;-73
2023/06/09 07:36:13;;;;;;;8.73;2.47;;;;;;;;;;5012272;28;20406;-73
2023/06/09 07:38:38;;;;;;;5.82;2.25;;;;;;;;;;5014482;28;20385;-73
2023/06/09 07:41:04;;;;;;;9.82;2.70;;;;;;;;;;5013475;28;20541;-73
2023/06/09 07:43:30;;;;;;;8.80;2.28;;;;;;;;;;5012657;28;20126;-73
2023/06/09 07:45:56;;;;;;;5.80;2.30;;;;;;;;;;5013238;28;20030;-73
2023/06/09 07:48:21;;;;;;;6.45;2.40;;;;;;;;;;5013059;28;20034;-73
2023/06/09 07:50:47;;;;;;;5.88;2.60;;;;;;;;;;5012830;28;20474;-73
2023/06/09 07:53:12;;;;;;;7.50;2.42;;;;;;;;;;5014095;28;20113;-73
2023/06/09 07:55:37;;;;;;;8.13;3.03;;;;;;;;;;5014158;28;20069;-73
2023/06/09 07:58:03;;;;;;;5.57;2.42;;;;;;;;;;5013684;28;20053;-73
2023/06/09 08:00:28;;;;;;;11.98;3.00;;;;;;;;;;5014117;28;20042;-73
2023/06/09 08:03:02;;;;;;;7.85;2.72;;;;;;;;;;5013216;28;20045;-74
2023/06/09 08:05:27;;;;;;;9.15;2.70;;;;;;;;;;5001094;28;20042;-73
2023/06/09 08:07:53;;;;;;;9.98;2.75;;;;;;;;;;5013232;28;20049;-74
2023/06/09 08:10:18;;;;;;;6.22;2.00;;;;;;;;;;5013901;28;20040;-73
2023/06/09 08:12:43;;;;;;;6.65;2.60;;;;;;;;;;5010577;28;20049;-72
2023/06/09 08:15:09;;;;;;;7.28;2.88;;;;;;;;;;5013834;28;20065;-70
2023/06/09 08:17:34;;;;;;;7.95;2.92;;;;;;;;;;5012855;28;20061;-70
2023/06/09 08:20:00;;;;;;;7.15;2.65;;;;;;;;;;5012218;28;20161;-71
2023/06/09 08:22:25;;;;;;;9.43;2.80;;;;;;;;;;5012396;28;20044;-71
2023/06/09 08:24:50;;;;;;;6.78;2.78;;;;;;;;;;4991701;28;20124;-73
2023/06/09 08:27:16;;;;;;;7.97;2.80;;;;;;;;;;5007485;28;20470;-73
2023/06/09 08:29:41;;;;;;;8.95;3.20;;;;;;;;;;5008482;28;20489;-73
2023/06/09 08:32:08;;;;;;;7.07;3.22;;;;;;;;;;5007656;28;20041;-72
2023/06/09 08:34:34;;;;;;;7.90;2.70;;;;;;;;;;5009680;28;20138;-73
2023/06/09 08:36:59;;;;;;;7.60;2.80;;;;;;;;;;5008711;28;20112;-73
2023/06/09 08:39:25;;;;;;;9.93;3.20;;;;;;;;;;5008945;28;20042;-73
2023/06/09 08:41:52;;;;;;;5.60;2.63;;;;;;;;;;5009478;28;20042;-73
2023/06/09 08:44:19;;;;;;;7.68;3.10;;;;;;;;;;5009789;28;20041;-73
2023/06/09 08:46:48;;;;;;;7.18;2.72;;;;;;;;;;5008444;28;20037;-73
2023/06/09 08:49:14;;;;;;;6.40;2.75;;;;;;;;;;5005771;28;20042;-73
2023/06/09 08:51:40;;;;;;;9.15;2.95;;;;;;;;;;4990317;28;20348;-73
2023/06/09 08:54:06;;;;;;;9.73;2.92;;;;;;;;;;5007780;28;20455;-73
2023/06/09 08:56:32;;;;;;;10.40;3.40;;;;;;;;;;5007312;28;20102;-73
2023/06/09 08:59:00;;;;;;;9.80;2.92;;;;;;;;;;5006844;28;20115;-72
2023/06/09 09:01:27;;;;;;;9.70;3.10;;;;;;;;;;5007727;28;20038;-72
2023/06/09 09:03:52;;;;;;;7.38;2.88;;;;;;;;;;5006636;28;20071;-73
2023/06/09 09:06:17;;;;;;;6.15;2.78;;;;;;;;;;5011979;28;20112;-73
2023/06/09 09:08:44;;;;;;;8.70;3.15;;;;;;;;;;5010169;28;20537;-73
2023/06/09 09:11:09;;;;;;;9.90;3.15;;;;;;;;;;5011578;28;20037;-73
2023/06/09 09:13:35;;;;;;;6.00;2.80;;;;;;;;;;5011936;28;20108;-73
2023/06/09 09:16:01;;;;;;;8.45;3.03;;;;;;;;;;5012025;28;20497;-73
2023/06/09 09:18:31;;;;;;;10.70;3.08;;;;;;;;;;5012355;28;20037;-73
2023/06/09 09:20:57;;;;;;;6.22;2.83;;;;;;;;;;5013715;28;20442;-73
2023/06/09 09:23:32;;;;;;;8.15;3.35;;;;;;;;;;5014992;28;20038;-74
2023/06/09 09:26:03;;;;;;;8.15;2.90;;;;;;;;;;5015633;28;20077;-71
2023/06/09 09:28:39;;;;;;;6.80;2.83;;;;;;;;;;5015319;28;20482;-71
2023/06/09 09:31:07;;;;;;;7.00;3.05;;;;;;;;;;5014192;28;20050;-71
2023/06/09 09:33:35;;;;;;;10.15;3.35;;;;;;;;;;5015151;28;20040;-71
2023/06/09 09:36:00;;;;;;;7.97;2.90;;;;;;;;;;5015584;28;20045;-71
2023/06/09 09:38:28;;;;;;;8.55;3.22;;;;;;;;;;5015173;28;20038;-71
2023/06/09 09:40:55;;;;;;;10.18;3.30;;;;;;;;;;5014393;28;20429;-73
2023/06/09 09:43:24;;;;;;;5.35;3.08;;;;;;;;;;5014906;28;20080;-73
2023/06/09 09:45:52;;;;;;;10.30;3.30;;;;;;;;;;5014052;28;20072;-73
2023/06/09 09:48:19;;;;;;;6.15;2.88;;;;;;;;;;5014189;28;20077;-73
2023/06/09 09:50:48;;;;;;;8.13;2.95;;;;;;;;;;5012397;28;20041;-73
2023/06/09 09:53:14;;;;;;;7.28;3.00;;;;;;;;;;5015776;28;20539;-73
2023/06/09 09:55:45;;;;;;;7.47;3.10;;;;;;;;;;5015542;28;20041;-73
2023/06/09 09:58:11;;;;;;;10.75;3.00;;;;;;;;;;5015658;28;20057;-74
2023/06/09 10:00:38;;;;;;;7.22;2.95;;;;;;;;;;5014496;28;20049;-73
2023/06/09 10:03:08;;;;;;;8.45;3.20;;;;;;;;;;5014621;28;20087;-74
2023/06/09 10:05:36;;;;;;;7.15;3.28;;;;;;;;;;5014015;28;20056;-73
2023/06/09 10:08:03;;;;;;;9.23;3.38;;;;;;;;;;5014348;28;20122;-73
2023/06/09 10:10:30;;;;;;;7.72;3.35;;;;;;;;;;5015067;28;20037;-73
2023/06/09 10:12:57;;;;;;;11.68;3.13;;;;;;;;;;5013857;28;20044;-73
2023/06/09 10:15:22;;;;;;;5.15;2.72;;;;;;;;;;5014037;28;20046;-73
2023/06/09 10:17:48;;;;;;;7.35;3.22;;;;;;;;;;5013806;28;20038;-73
2023/06/09 10:20:14;;;;;;;6.70;3.30;;;;;;;;;;5015264;28;20029;-70
2023/06/09 10:22:40;;;;;;;9.73;3.55;;;;;;;;;;5014480;28;20104;-73
2023/06/09 10:25:06;;;;;;;8.20;3.47;;;;;;;;;;5014730;28;20478;-73
2023/06/09 10:27:32;;;;;;;11.10;3.30;;;;;;;;;;5015435;28;20033;-72
2023/06/09 10:29:57;;;;;;;9.68;3.63;;;;;;;;;;5015153;28;20542;-73
2023/06/09 10:32:26;;;;;;;5.93;3.03;;;;;;;;;;5012736;28;20046;-72
2023/06/09 10:34:52;;;;;;;9.93;3.55;;;;;;;;;;5013583;28;20474;-73
2023/06/09 10:37:32;;;;;;;7.88;3.63;;;;;;;;;;5007672;28;20406;-73
2023/06/09 10:40:10;;;;;;;10.98;3.67;;;;;;;;;;5004968;28;20070;-72
2023/06/09 10:42:45;;;;;;;6.80;3.00;;;;;;;;;;5001670;28;20047;-72
2023/06/09 10:45:17;;;;;;;8.80;2.85;;;;;;;;;;5014432;28;20562;-72
2023/06/09 10:47:47;;;;;;;9.00;3.30;;;;;;;;;;5014997;28;20064;-72
2023/06/09 10:50:23;;;;;;;7.85;3.33;;;;;;;;;;5013150;28;20521;-72
2023/06/09 10:52:49;;;;;;;14.95;4.43;;;;;;;;;;5014699;28;20073;-72
2023/06/09 10:55:15;;;;;;;7.22;2.67;;;;;;;;;;5013394;28;20045;-72
2023/06/09 10:57:41;;;;;;;9.52;3.70;;;;;;;;;;5013437;28;20054;-72
2023/06/09 11:00:11;;;;;;;9.70;3.35;;;;;;;;;;5013160;28;20042;-72
2023/06/09 11:02:41;;;;;;;12.50;3.35;;;;;;;;;;5013224;28;20522;-72
2023/06/09 11:05:07;;;;;;;8.88;2.95;;;;;;;;;;5013194;28;20083;-72
2023/06/09 11:07:46;;;;;;;14.23;3.88;;;;;;;;;;5006784;28;20033;-72
2023/06/09 11:10:12;;;;;;;9.93;3.30;;;;;;;;;;5008156;28;20041;-72
2023/06/09 11:12:37;;;;;;;8.32;3.30;;;;;;;;;;5014331;28;20056;-73
2023/06/09 11:15:07;;;;;;;8.25;3.05;;;;;;;;;;5012768;28;20034;-72
2023/06/09 11:17:33;;;;;;;9.55;3.20;;;;;;;;;;4993400;28;20398;-72
2023/06/09 11:20:08;;;;;;;10.93;3.47;;;;;;;;;;5013536;28;20394;-72
2023/06/09 11:22:35;;;;;;;9.50;3.38;;;;;;;;;;5011719;28;20026;-72
2023/06/09 11:25:00;;;;;;;14.18;3.60;;;;;;;;;;5010903;28;20393;-72
2023/06/09 11:27:26;;;;;;;8.50;3.40;;;;;;;;;;5012290;28;20045;-72
2023/06/09 11:30:11;;;;;;;9.98;3.63;;;;;;;;;;5011890;28;20099;-72
2023/06/09 11:32:46;;;;;;;12.95;3.72;;;;;;;;;;5012521;28;20084;-72
2023/06/09 11:35:31;;;;;;;9.75;4.35;;;;;;;;;;5012446;28;20056;-73
2023/06/09 11:38:19;;;;;;;6.28;3.00;;;;;;;;;;5007884;28;20049;-72
2023/06/09 11:40:51;;;;;;;9.98;4.25;;;;;;;;;;5003705;28;20026;-72
2023/06/09 11:43:19;;;;;;;12.07;3.55;;;;;;;;;;5011080;28;20092;-72
2023/06/09 11:45:45;;;;;;;8.98;3.40;;;;;;;;;;5012777;28;20375;-72
2023/06/09 11:48:10;;;;;;;10.70;3.80;;;;;;;;;;5011972;28;20096;-72
2023/06/09 11:50:47;;;;;;;10.68;3.28;;;;;;;;;;5012573;28;20040;-72
2023/06/09 11:53:15;;;;;;;10.00;4.38;;;;;;;;;;5001850;28;20038;-72
2023/06/09 11:55:41;;;;;;;10.30;3.53;;;;;;;;;;5009639;28;20124;-72
2023/06/09 11:58:08;;;;;;;9.45;3.47;;;;;;;;;;4997342;28;20117;-72
2023/06/09 12:00:38;;;;;;;9.90;3.67;;;;;;;;;;5008963;28;20037;-72
2023/06/09 12:03:05;;;;;;;11.05;3.30;;;;;;;;;;5007981;28;20069;-72
2023/06/09 12:05:30;;;;;;;8.75;3.50;;;;;;;;;;4991387;28;20041;-72
2023/06/09 12:07:55;;;;;;;13.18;4.07;;;;;;;;;;5008397;28;20056;-72
2023/06/09 12:10:24;;;;;;;10.98;3.55;;;;;;;;;;5008606;28;20042;-72
2023/06/09 12:12:49;;;;;;;6.35;3.35;;;;;;;;;;5007764;28;20525;-72
2023/06/09 12:15:17;;;;;;;8.70;3.35;;;;;;;;;;5007846;28;20105;-72
2023/06/09 12:17:44;;;;;;;9.77;4.13;;;;;;;;;;5001407;28;20045;-72
2023/06/09 12:20:18;;;;;;;11.07;4.38;;;;;;;;;;5003181;28;20386;-72
2023/06/09 12:22:44;;;;;;;9.70;3.83;;;;;;;;;;5008698;28;20187;-72
2023/06/09 12:25:29;;;;;;;6.55;3.47;;;;;;;;;;5008677;28;20521;-72
2023/06/09 12:28:11;;;;;;;15.18;3.92;;;;;;;;;;5007777;28;20045;-72
2023/06/09 12:30:44;;;;;;;13.30;3.77;;;;;;;;;;5002509;28;20464;-72
2023/06/09 12:33:12;;;;;;;5.78;2.50;;;;;;;;;;5008224;28;20180;-72
2023/06/09 12:35:39;;;;;;;6.22;3.08;;;;;;;;;;5009651;28;20402;-72
2023/06/09 12:38:17;;;;;;;10.15;4.03;;;;;;;;;;5007955;28;20049;-72
2023/06/09 12:41:06;;;;;;;10.48;3.85;;;;;;;;;;5008405;28;20707;-72
2023/06/09 12:43:52;;;;;;;10.23;4.28;;;;;;;;;;4995831;28;20054;-72
2023/06/09 12:46:26;;;;;;;11.70;3.78;;;;;;;;;;5010845;28;20041;-72
2023/06/09 12:49:01;;;;;;;12.32;4.28;;;;;;;;;;5011908;28;20466;-72
2023/06/09 12:51:26;;;;;;;9.00;4.10;;;;;;;;;;5012431;28;20081;-72
2023/06/09 12:53:52;;;;;;;5.80;3.25;;;;;;;;;;5008109;28;20041;-72
2023/06/09 12:56:18;;;;;;;11.10;4.43;;;;;;;;;;5014938;28;20367;-72
2023/06/09 12:58:43;;;;;;;6.53;3.33;;;;;;;;;;5003234;28;20132;-72
2023/06/09 13:01:09;;;;;;;9.52;3.47;;;;;;;;;;5015790;28;20455;-72
2023/06/09 13:03:34;;;;;;;11.35;3.75;;;;;;;;;;5015799;28;20034;-72
2023/06/09 13:05:59;;;;;;;9.27;4.18;;;;;;;;;;5013844;28;20799;-72
2023/06/09 13:08:25;;;;;;;13.25;4.30;;;;;;;;;;5016151;28;20041;-72
2023/06/09 13:10:50;;;;;;;10.52;3.47;;;;;;;;;;5014683;28;20080;-72
2023/06/09 13:13:15;;;;;;;12.82;4.60;;;;;;;;;;5016136;28;20394;-72
2023/06/09 13:15:41;;;;;;;6.45;3.05;;;;;;;;;;5015393;28;20042;-72
2023/06/09 13:18:11;;;;;;;7.45;3.88;;;;;;;;;;5015839;28;20033;-72
2023/06/09 13:20:36;;;;;;;11.10;3.88;;;;;;;;;;5012012;28;20117;-72
2023/06/09 13:23:02;;;;;;;9.30;3.63;;;;;;;;;;5014135;28;20121;-72
2023/06/09 13:25:27;;;;;;;11.10;3.90;;;;;;;;;;5014966;28;20046;-72
2023/06/09 13:27:52;;;;;;;8.43;3.65;;;;;;;;;;5014518;28;20042;-72
2023/06/09 13:30:18;;;;;;;11.25;3.70;;;;;;;;;;5012795;28;20145;-72
2023/06/09 13:32:43;;;;;;;7.43;3.80;;;;;;;;;;5015365;28;20033;-72
2023/06/09 13:35:09;;;;;;;7.13;3.63;;;;;;;;;;5014846;28;20045;-72
2023/06/09 13:37:34;;;;;;;12.48;4.10;;;;;;;;;;5014191;28;20053;-72
2023/06/09 13:39:59;;;;;;;8.90;3.72;;;;;;;;;;5015451;28;20083;-72
2023/06/09 13:42:25;;;;;;;9.77;3.80;;;;;;;;;;5015568;28;20049;-72
2023/06/09 13:44:50;;;;;;;9.45;3.97;;;;;;;;;;5014302;28;20092;-72
2023/06/09 13:47:15;;;;;;;10.02;3.97;;;;;;;;;;5015365;28;20034;-72
2023/06/09 13:49:41;;;;;;;18.58;4.07;;;;;;;;;;5015253;28;20041;-72
2023/06/09 13:52:06;;;;;;;9.57;3.92;;;;;;;;;;5015044;28;20034;-72
2023/06/09 13:54:31;;;;;;;10.75;4.03;;;;;;;;;;5010900;28;20529;-72
2023/06/09 13:56:57;;;;;;;12.32;4.25;;;;;;;;;;5013313;28;20454;-72
2023/06/09 13:59:22;;;;;;;13.32;3.60;;;;;;;;;;5012387;28;20593;-71
2023/06/09 14:01:48;;;;;;;8.48;3.95;;;;;;;;;;5007020;28;20034;-72
2023/06/09 14:04:13;;;;;;;12.05;3.80;;;;;;;;;;5012856;28;20048;-72
2023/06/09 14:06:40;;;;;;;11.50;3.92;;;;;;;;;;5014828;28;20042;-72
2023/06/09 14:09:07;;;;;;;10.23;3.40;;;;;;;;;;5006221;28;20034;-72
2023/06/09 14:11:33;;;;;;;6.32;3.00;;;;;;;;;;5015115;28;20128;-72
2023/06/09 14:13:59;;;;;;;8.00;3.67;;;;;;;;;;5007405;28;20048;-72
2023/06/09 14:16:24;;;;;;;11.48;3.70;;;;;;;;;;5012289;28;20120;-72
2023/06/09 14:18:49;;;;;;;9.10;3.17;;;;;;;;;;5009291;28;20042;-72
2023/06/09 14:21:15;;;;;;;7.60;3.90;;;;;;;;;;5014666;28;20088;-72
2023/06/09 14:23:41;;;;;;;9.90;4.03;;;;;;;;;;5013712;28;20026;-72
2023/06/09 14:26:07;;;;;;;8.20;4.10;;;;;;;;;;5011603;28;20038;-72
2023/06/09 14:28:32;;;;;;;9.75;3.78;;;;;;;;;;5010389;28;20127;-72
2023/06/09 14:30:57;;;;;;;10.65;4.10;;;;;;;;;;5013807;28;20036;-72
2023/06/09 14:33:23;;;;;;;8.85;3.92;;;;;;;;;;4996396;28;20038;-72
2023/06/09 14:35:48;;;;;;;12.15;3.85;;;;;;;;;;5010964;28;20038;-72
2023/06/09 14:38:13;;;;;;;9.35;3.90;;;;;;;;;;5010589;28;20034;-72